createdAt,value
2018-03-02T00:02:26.562Z,98964.81
2018-03-02T00:04:55.843Z,98963.08
2018-03-02T00:07:25.848Z,98969.55
2018-03-02T00:09:55.181Z,98965.58
2018-03-02T00:12:25.186Z,98961.56
2018-03-02T00:14:54.543Z,98959.42
2018-03-02T00:17:23.790Z,98961.62
2018-03-02T00:19:53.024Z,98951.05
2018-03-02T00:22:22.388Z,98953.14
2018-03-02T00:24:51.896Z,98943.74
2018-03-02T00:27:21.883Z,98946.66
2018-03-02T00:29:51.307Z,98939.13
2018-03-02T00:32:21.289Z,98937.61
2018-03-02T00:34:50.544Z,98940.78
2018-03-02T00:37:19.755Z,98939.23
2018-03-02T00:39:49.000Z,98935.54
2018-03-02T00:42:18.994Z,98931.70
2018-03-02T00:44:48.223Z,98921.72
2018-03-02T00:47:17.473Z,98908.75
2018-03-02T00:49:46.710Z,98918.89
2018-03-02T00:52:16.953Z,98914.52
2018-03-02T00:54:46.316Z,98903.41
2018-03-02T00:57:17.052Z,98902.55
2018-03-02T00:59:46.282Z,98897.66
2018-03-02T01:02:15.513Z,98906.23
2018-03-02T01:04:44.705Z,98897.50
2018-03-02T01:07:13.986Z,98899.29
2018-03-02T01:09:43.223Z,98901.80
2018-03-02T01:12:12.483Z,98895.72
2018-03-02T01:14:42.012Z,98890.94
2018-03-02T01:17:11.238Z,98891.84
2018-03-02T01:19:40.442Z,98888.91
2018-03-02T01:22:09.673Z,98889.42
2018-03-02T01:24:38.939Z,98889.16
2018-03-02T01:27:08.402Z,98890.45
2018-03-02T01:29:37.659Z,98881.94
2018-03-02T01:32:07.014Z,98873.98
2018-03-02T01:34:36.239Z,98868.83
2018-03-02T01:37:05.517Z,98871.16
2018-03-02T01:39:34.815Z,98864.14
2018-03-02T01:42:04.362Z,98863.33
2018-03-02T01:44:34.369Z,98865.58
2018-03-02T01:47:04.363Z,98857.20
2018-03-02T01:49:33.610Z,98852.04
2018-03-02T01:52:03.005Z,98851.22
2018-03-02T01:54:33.070Z,98848.00
2018-03-02T01:57:02.290Z,98852.60
2018-03-02T01:59:31.649Z,98847.57
2018-03-02T02:02:01.552Z,98847.84
2018-03-02T02:04:30.859Z,98840.20
2018-03-02T02:07:00.088Z,98837.51
2018-03-02T02:09:29.344Z,98847.27
2018-03-02T02:11:58.684Z,98830.03
2018-03-02T02:14:28.088Z,98833.25
2018-03-02T02:16:57.359Z,98834.30
2018-03-02T02:19:26.638Z,98828.19
2018-03-02T02:21:56.671Z,98832.53
2018-03-02T02:24:26.638Z,98827.37
2018-03-02T02:26:56.727Z,98829.08
2018-03-02T02:29:25.958Z,98824.27
2018-03-02T02:31:55.988Z,98831.91
2018-03-02T02:34:25.992Z,98823.72
2018-03-02T02:36:55.995Z,98818.31
2018-03-02T02:39:25.251Z,98820.03
2018-03-02T02:41:55.209Z,98818.04
2018-03-02T02:44:24.431Z,98813.34
2018-03-02T02:46:54.423Z,98808.45
2018-03-02T02:49:23.751Z,98796.95
2018-03-02T02:51:53.008Z,98794.25
2018-03-02T02:54:23.013Z,98792.14
2018-03-02T02:56:52.244Z,98793.98
2018-03-02T02:59:21.443Z,98797.55
2018-03-02T03:01:50.728Z,98799.02
2018-03-02T03:04:21.478Z,98796.87
2018-03-02T03:06:51.158Z,98800.17
2018-03-02T03:09:20.447Z,98800.31
2018-03-02T03:11:49.672Z,98801.63
2018-03-02T03:14:19.015Z,98805.87
2018-03-02T03:16:48.235Z,98803.35
2018-03-02T03:19:17.539Z,98801.25
2018-03-02T03:21:46.741Z,98801.38
2018-03-02T03:24:16.061Z,98796.22
2018-03-02T03:26:45.295Z,98792.12
2018-03-02T03:29:15.262Z,98797.92
2018-03-02T03:31:44.538Z,98802.94
2018-03-02T03:34:13.770Z,98787.22
2018-03-02T03:36:43.042Z,98788.48
2018-03-02T03:39:12.283Z,98785.20
2018-03-02T03:41:43.059Z,98779.64
2018-03-02T03:44:12.289Z,98784.90
2018-03-02T03:46:41.498Z,98772.47
2018-03-02T03:49:11.117Z,98779.70
2018-03-02T03:51:40.314Z,98764.63
2018-03-02T03:54:09.519Z,98765.95
2018-03-02T03:56:39.531Z,98762.11
2018-03-02T03:59:09.520Z,98767.54
2018-03-02T04:01:38.762Z,98761.47
2018-03-02T04:04:08.744Z,98756.04
2018-03-02T04:06:38.472Z,98755.09
2018-03-02T04:09:07.682Z,98746.00
2018-03-02T04:11:37.770Z,98752.98
2018-03-02T04:14:08.506Z,98749.23
2018-03-02T04:16:38.502Z,98748.05
2018-03-02T04:19:07.727Z,98741.83
2018-03-02T04:21:37.093Z,98747.98
2018-03-02T04:24:06.329Z,98745.39
2018-03-02T04:26:35.567Z,98743.80
2018-03-02T04:29:04.801Z,98747.76
2018-03-02T04:31:34.043Z,98740.78
2018-03-02T04:34:03.259Z,98748.32
2018-03-02T04:36:32.490Z,98741.95
2018-03-02T04:39:01.729Z,98742.08
2018-03-02T04:41:30.999Z,98752.63
2018-03-02T04:44:00.243Z,98745.19
2018-03-02T04:46:29.512Z,98736.08
2018-03-02T04:48:58.910Z,98733.02
2018-03-02T04:51:28.230Z,98726.22
2018-03-02T04:53:58.225Z,98724.91
2018-03-02T04:56:27.446Z,98734.12
2018-03-02T04:58:57.475Z,98729.17
2018-03-02T05:01:26.963Z,98718.81
2018-03-02T05:03:56.394Z,98714.76
2018-03-02T05:06:25.603Z,98718.02
2018-03-02T05:08:54.834Z,98711.27
2018-03-02T05:11:24.152Z,98715.88
2018-03-02T05:13:54.216Z,98706.64
2018-03-02T05:16:23.404Z,98696.51
2018-03-02T05:18:52.775Z,98692.92
2018-03-02T05:21:22.757Z,98698.58
2018-03-02T05:23:52.064Z,98679.81
2018-03-02T05:26:21.316Z,98688.64
2018-03-02T05:28:50.548Z,98682.23
2018-03-02T05:31:19.758Z,98686.31
2018-03-02T05:33:49.050Z,98672.87
2018-03-02T05:36:18.296Z,98688.63
2018-03-02T05:38:47.507Z,98668.77
2018-03-02T05:41:16.732Z,98670.73
2018-03-02T05:43:45.952Z,98678.10
2018-03-02T05:46:16.183Z,98672.68
2018-03-02T05:48:45.410Z,98669.34
2018-03-02T05:51:14.733Z,98673.82
2018-03-02T05:53:44.147Z,98680.07
2018-03-02T05:56:13.395Z,98671.36
2018-03-02T05:58:43.545Z,98671.36
2018-03-02T06:01:12.772Z,98663.99
2018-03-02T06:03:42.010Z,98651.87
2018-03-02T06:06:11.331Z,98657.94
2018-03-02T06:08:40.544Z,98650.01
2018-03-02T06:11:09.857Z,98662.67
2018-03-02T06:13:39.447Z,98661.88
2018-03-02T06:16:08.675Z,98668.49
2018-03-02T06:18:37.900Z,98654.48
2018-03-02T06:21:07.134Z,98655.83
2018-03-02T06:23:37.303Z,98660.33
2018-03-02T06:26:06.549Z,98658.52
2018-03-02T06:28:35.770Z,98651.45
2018-03-02T06:31:05.007Z,98644.02
2018-03-02T06:33:34.406Z,98647.95
2018-03-02T06:36:03.639Z,98646.75
2018-03-02T06:38:32.964Z,98654.81
2018-03-02T06:41:02.290Z,98650.98
2018-03-02T06:43:31.703Z,98645.16
2018-03-02T06:46:01.034Z,98647.62
2018-03-02T06:48:31.171Z,98646.36
2018-03-02T06:51:00.405Z,98639.36
2018-03-02T06:53:29.675Z,98638.59
2018-03-02T06:55:58.841Z,98634.91
2018-03-02T06:58:29.043Z,98629.86
2018-03-02T07:00:58.322Z,98631.20
2018-03-02T07:03:27.573Z,98634.50
2018-03-02T07:05:56.840Z,98633.17
2018-03-02T07:08:26.238Z,98629.86
2018-03-02T07:10:55.489Z,98648.67
2018-03-02T07:13:24.893Z,98656.28
2018-03-02T07:15:54.110Z,98636.66
2018-03-02T07:18:23.352Z,98646.03
2018-03-02T07:20:52.539Z,98646.08
2018-03-02T07:23:21.765Z,98640.33
2018-03-02T07:25:50.980Z,98632.72
2018-03-02T07:28:20.183Z,98634.25
2018-03-02T07:30:49.735Z,98627.52
2018-03-02T07:33:18.992Z,98636.59
2018-03-02T07:35:48.230Z,98626.38
2018-03-02T07:38:17.646Z,98620.95
2018-03-02T07:40:46.861Z,98625.33
2018-03-02T07:43:16.057Z,98622.61
2018-03-02T07:45:45.264Z,98622.90
2018-03-02T07:48:14.535Z,98614.23
2018-03-02T07:50:44.594Z,98609.83
2018-03-02T07:53:13.779Z,98607.30
2018-03-02T07:55:43.055Z,98607.37
2018-03-02T07:58:13.069Z,98605.52
2018-03-02T08:00:43.081Z,98604.83
2018-03-02T08:03:13.105Z,98599.75
2018-03-02T08:05:43.095Z,98612.14
2018-03-02T08:08:13.814Z,98611.09
2018-03-02T08:10:43.119Z,98598.62
2018-03-02T08:13:12.356Z,98603.00
2018-03-02T08:15:42.331Z,98600.03
2018-03-02T08:18:11.696Z,98592.95
2018-03-02T08:20:40.920Z,98592.39
2018-03-02T08:23:10.129Z,98585.81
2018-03-02T08:25:39.363Z,98580.70
2018-03-02T08:28:08.592Z,98583.30
2018-03-02T08:30:37.870Z,98575.77
2018-03-02T08:33:07.102Z,98580.40
2018-03-02T08:35:36.387Z,98592.59
2018-03-02T08:38:05.630Z,98569.77
2018-03-02T08:40:34.883Z,98566.38
2018-03-02T08:43:04.094Z,98564.71
2018-03-02T08:45:33.311Z,98563.30
2018-03-02T08:48:02.648Z,98548.55
2018-03-02T08:50:32.721Z,98551.84
2018-03-02T08:53:01.940Z,98547.75
2018-03-02T08:55:31.212Z,98566.16
2018-03-02T08:58:00.437Z,98548.48
2018-03-02T09:00:30.608Z,98541.28
2018-03-02T09:02:59.830Z,98551.53
2018-03-02T09:05:29.077Z,98546.30
2018-03-02T09:07:59.095Z,98540.50
2018-03-02T09:10:28.348Z,98541.98
2018-03-02T09:12:57.551Z,98529.83
2018-03-02T09:15:27.625Z,98529.73
2018-03-02T09:17:56.870Z,98527.36
2018-03-02T09:20:26.142Z,98533.72
2018-03-02T09:22:55.392Z,98534.38
2018-03-02T09:25:25.599Z,98524.34
2018-03-02T09:27:55.092Z,98529.38
2018-03-02T09:30:24.344Z,98529.00
2018-03-02T09:32:53.574Z,98526.60
2018-03-02T09:35:22.939Z,98527.38
2018-03-02T09:37:52.155Z,98521.95
2018-03-02T09:40:21.430Z,98555.88
2018-03-02T09:42:50.751Z,98540.48
2018-03-02T09:45:20.012Z,98526.56
2018-03-02T09:47:50.012Z,98536.78
2018-03-02T09:50:20.017Z,98533.73
2018-03-02T09:52:49.287Z,98530.30
2018-03-02T09:55:18.549Z,98525.35
2018-03-02T09:57:47.764Z,98526.25
2018-03-02T10:00:17.071Z,98524.63
2018-03-02T10:02:46.338Z,98527.80
2018-03-02T10:05:16.344Z,98519.83
2018-03-02T10:07:45.598Z,98526.59
2018-03-02T10:10:14.819Z,98515.38
2018-03-02T10:12:44.068Z,98520.38
2018-03-02T10:15:13.300Z,98517.53
2018-03-02T10:17:42.572Z,98512.72
2018-03-02T10:20:11.873Z,98511.77
2018-03-02T10:22:41.123Z,98524.13
2018-03-02T10:25:10.372Z,98513.64
2018-03-02T10:27:39.643Z,98512.61
2018-03-02T10:30:09.670Z,98521.76
2018-03-02T10:32:38.943Z,98514.04
2018-03-02T10:35:08.191Z,98522.34
2018-03-02T10:37:37.468Z,98518.31
2018-03-02T10:40:08.003Z,98511.56
2018-03-02T10:42:37.238Z,98512.18
2018-03-02T10:45:06.629Z,98519.70
2018-03-02T10:47:35.863Z,98509.67
2018-03-02T10:50:05.943Z,98517.16
2018-03-02T10:52:35.172Z,98522.73
2018-03-02T10:55:04.507Z,98513.20
2018-03-02T10:57:34.496Z,98515.16
2018-03-02T11:00:03.726Z,98522.05
2018-03-02T11:02:32.947Z,98515.80
2018-03-02T11:05:07.714Z,98526.66
2018-03-02T11:07:37.150Z,98505.96
2018-03-02T11:10:06.471Z,98493.86
2018-03-02T11:12:35.727Z,98503.17
2018-03-02T11:15:05.787Z,98530.59
2018-03-02T11:17:35.131Z,98534.87
2018-03-02T11:20:04.387Z,98540.25
2018-03-02T11:22:33.620Z,98503.50
2018-03-02T11:25:02.951Z,98503.67
2018-03-02T11:27:32.935Z,98502.30
2018-03-02T11:30:02.220Z,98486.91
2018-03-02T11:32:31.475Z,98498.80
2018-03-02T11:35:00.933Z,98500.12
2018-03-02T11:37:30.183Z,98495.30
2018-03-02T11:39:59.428Z,98488.64
2018-03-02T11:42:28.710Z,98486.34
2018-03-02T11:44:57.994Z,98481.99
2018-03-02T11:47:27.241Z,98485.70
2018-03-02T11:49:56.727Z,98473.42
2018-03-02T11:52:26.024Z,98485.56
2018-03-02T11:54:55.303Z,98470.46
2018-03-02T11:57:24.703Z,98473.70
2018-03-02T11:59:53.938Z,98469.92
2018-03-02T12:02:23.178Z,98471.63
2018-03-02T12:04:52.403Z,98470.63
2018-03-02T12:07:21.631Z,98471.27
2018-03-02T12:09:51.858Z,98473.06
2018-03-02T12:12:21.887Z,98471.57
2018-03-02T12:14:51.161Z,98494.35
2018-03-02T12:17:20.434Z,98468.02
2018-03-02T12:19:49.842Z,98465.61
2018-03-02T12:22:19.082Z,98457.30
2018-03-02T12:24:49.190Z,98453.80
2018-03-02T12:27:19.370Z,98458.70
2018-03-02T12:29:49.335Z,98467.48
2018-03-02T12:32:19.467Z,98454.00
2018-03-02T12:34:48.898Z,98456.58
2018-03-02T12:37:18.145Z,98454.69
2018-03-02T12:39:47.391Z,98459.96
2018-03-02T12:42:16.622Z,98482.94
2018-03-02T12:44:45.824Z,98470.25
2018-03-02T12:47:15.071Z,98478.48
2018-03-02T12:49:45.114Z,98466.30
2018-03-02T12:52:14.407Z,98459.66
2018-03-02T12:54:43.685Z,98463.08
2018-03-02T12:57:12.956Z,98457.81
2018-03-02T12:59:43.008Z,98462.61
2018-03-02T13:02:12.973Z,98484.05
2018-03-02T13:04:42.259Z,98479.06
2018-03-02T13:07:11.482Z,98483.54
2018-03-02T13:09:40.904Z,98487.14
2018-03-02T13:12:10.910Z,98476.33
2018-03-02T13:14:40.122Z,98482.03
2018-03-02T13:17:10.428Z,98487.31
2018-03-02T13:19:40.434Z,98479.49
2018-03-02T13:22:27.339Z,98482.52
2018-03-02T13:24:56.643Z,98489.64
2018-03-02T13:27:43.611Z,98494.72
2018-03-02T13:30:12.923Z,98483.11
2018-03-02T13:32:42.760Z,98483.62
2018-03-02T13:35:12.024Z,98480.16
2018-03-02T13:37:41.276Z,98484.49
2018-03-02T13:40:28.235Z,98478.06
2018-03-02T13:42:57.487Z,98483.23
2018-03-02T13:45:26.847Z,98474.23
2018-03-02T14:01:45.845Z,98453.45
2018-03-02T14:04:33.552Z,98441.77
2018-03-02T14:07:02.792Z,98434.30
2018-03-02T14:09:32.086Z,98433.27
2018-03-02T14:12:02.059Z,98423.77
2018-03-02T14:14:31.434Z,98414.64
2018-03-02T14:17:00.699Z,98410.97
2018-03-02T14:19:30.715Z,98420.67
2018-03-02T14:22:00.704Z,98422.28
2018-03-02T14:24:29.959Z,98422.00
2018-03-02T14:26:59.198Z,98410.12
2018-03-02T14:29:28.424Z,98420.91
2018-03-02T14:31:57.666Z,98416.30
2018-03-02T14:34:26.881Z,98425.31
2018-03-02T14:36:56.117Z,98418.09
2018-03-02T14:39:25.482Z,98423.92
2018-03-02T14:41:54.696Z,98422.52
2018-03-02T14:44:23.944Z,98427.86
2018-03-02T14:46:53.154Z,98415.77
2018-03-02T14:49:22.441Z,98426.89
2018-03-02T14:51:51.701Z,98423.28
2018-03-02T14:54:21.730Z,98419.28
2018-03-02T14:56:51.702Z,98415.19
2018-03-02T14:59:20.943Z,98428.95
2018-03-02T15:01:50.964Z,98419.61
2018-03-02T15:04:20.962Z,98418.64
2018-03-02T15:06:50.952Z,98407.03
2018-03-02T15:09:20.180Z,98413.95
2018-03-02T15:11:50.208Z,98395.32
2018-03-02T15:14:19.463Z,98428.62
2018-03-02T15:16:48.713Z,98418.03
2018-03-02T15:19:17.926Z,98421.73
2018-03-02T15:21:47.152Z,98414.34
2018-03-02T15:24:16.401Z,98415.73
2018-03-02T15:26:46.384Z,98417.78
2018-03-02T15:29:15.706Z,98425.06
2018-03-02T15:31:45.661Z,98425.84
2018-03-02T15:34:15.048Z,98424.06
2018-03-02T15:36:44.256Z,98432.68
2018-03-02T15:39:13.476Z,98429.25
2018-03-02T15:41:42.703Z,98432.52
2018-03-02T15:44:11.911Z,98431.52
2018-03-02T15:46:41.215Z,98443.04
2018-03-02T15:49:11.227Z,98440.71
2018-03-02T15:51:41.256Z,98438.49
2018-03-02T15:54:10.503Z,98435.52
2018-03-02T15:56:39.867Z,98436.45
2018-03-02T15:59:09.199Z,98438.97
2018-03-02T16:01:38.415Z,98434.42
2018-03-02T16:04:07.647Z,98441.48
2018-03-02T16:06:36.938Z,98444.38
2018-03-02T16:09:06.940Z,98439.56
2018-03-02T16:11:36.945Z,98437.46
2018-03-02T16:14:06.179Z,98432.09
2018-03-02T16:16:35.414Z,98431.57
2018-03-02T16:19:04.701Z,98436.17
2018-03-02T16:21:34.216Z,98439.36
2018-03-02T16:24:03.473Z,98443.53
2018-03-02T16:26:33.456Z,98447.69
2018-03-02T16:29:02.699Z,98432.77
2018-03-02T16:31:31.920Z,98431.36
2018-03-02T16:34:01.179Z,98428.60
2018-03-02T16:36:31.242Z,98435.08
2018-03-02T16:39:00.500Z,98435.39
2018-03-02T16:41:29.775Z,98431.92
2018-03-02T16:43:59.894Z,98440.21
2018-03-02T16:46:29.951Z,98434.31
2018-03-02T16:48:59.180Z,98436.20
2018-03-02T16:51:28.381Z,98441.20
2018-03-02T16:53:58.788Z,98444.98
2018-03-02T16:56:28.033Z,98450.99
2018-03-02T16:58:57.419Z,98451.69
2018-03-02T17:01:28.183Z,98450.55
2018-03-02T17:03:58.198Z,98454.89
2018-03-02T17:06:28.269Z,98461.91
2018-03-02T17:08:57.588Z,98472.17
2018-03-02T17:11:26.855Z,98474.05
2018-03-02T17:13:56.324Z,98476.58
2018-03-02T17:16:26.382Z,98473.41
2018-03-02T17:18:55.681Z,98482.53
2018-03-02T17:21:24.911Z,98479.63
2018-03-02T17:23:54.304Z,98481.07
2018-03-02T17:26:23.695Z,98482.98
2018-03-02T17:28:52.918Z,98484.61
2018-03-02T17:31:22.145Z,98492.60
2018-03-02T17:33:51.389Z,98490.49
2018-03-02T17:36:20.643Z,98498.22
2018-03-02T17:38:49.885Z,98489.02
2018-03-02T17:41:19.139Z,98493.49
2018-03-02T17:43:48.844Z,98485.13
2018-03-02T17:46:18.840Z,98502.86
2018-03-02T17:48:48.834Z,98498.77
2018-03-02T17:51:18.071Z,98505.03
2018-03-02T17:53:47.333Z,98513.17
2018-03-02T17:56:16.630Z,98512.42
2018-03-02T17:58:46.128Z,98513.23
2018-03-02T18:01:15.445Z,98516.31
2018-03-02T18:03:46.201Z,98516.33
2018-03-02T18:06:16.264Z,98522.03
2018-03-02T18:08:45.576Z,98520.75
2018-03-02T18:11:16.281Z,98518.62
2018-03-02T18:13:45.630Z,98519.03
2018-03-02T18:16:14.880Z,98518.38
2018-03-02T18:18:44.111Z,98518.64
2018-03-02T18:21:13.338Z,98519.72
2018-03-02T18:23:43.309Z,98524.50
2018-03-02T18:26:12.540Z,98523.17
2018-03-02T18:28:42.648Z,98524.80
2018-03-02T18:31:11.894Z,98525.19
2018-03-02T18:33:41.214Z,98528.14
2018-03-02T18:36:10.445Z,98529.37
2018-03-02T18:38:39.692Z,98534.83
2018-03-02T18:41:08.905Z,98539.48
2018-03-02T18:43:38.895Z,98536.36
2018-03-02T18:46:08.152Z,98538.77
2018-03-02T18:48:37.348Z,98539.60
2018-03-02T18:51:06.577Z,98542.98
2018-03-02T18:53:35.839Z,98537.56
2018-03-02T18:56:05.254Z,98539.43
2018-03-02T18:58:35.254Z,98540.84
2018-03-02T19:01:04.498Z,98541.77
2018-03-02T19:03:34.591Z,98541.52
2018-03-02T19:06:04.627Z,98545.52
2018-03-02T19:08:33.997Z,98544.86
2018-03-02T19:11:03.284Z,98539.95
2018-03-02T19:13:32.523Z,98547.41
2018-03-02T19:16:01.782Z,98541.02
2018-03-02T19:18:31.008Z,98543.28
2018-03-02T19:21:01.072Z,98540.23
2018-03-02T19:23:30.497Z,98535.23
2018-03-02T19:25:59.723Z,98532.58
2018-03-02T19:28:28.978Z,98540.23
2018-03-02T19:30:58.273Z,98544.29
2018-03-02T19:33:27.568Z,98537.17
2018-03-02T19:35:56.801Z,98537.42
2018-03-02T19:38:26.263Z,98535.56
2018-03-02T19:40:55.531Z,98536.78
2018-03-02T19:43:25.967Z,98543.14
2018-03-02T19:45:55.350Z,98544.11
2018-03-02T19:48:24.974Z,98543.68
2018-03-02T19:50:54.617Z,98551.41
2018-03-02T19:53:24.226Z,98545.44
2018-03-02T19:55:53.489Z,98555.17
2018-03-02T19:58:23.093Z,98556.11
2018-03-02T20:00:52.714Z,98560.09
2018-03-02T20:03:21.994Z,98554.89
2018-03-02T20:05:51.396Z,98554.09
2018-03-02T20:08:21.283Z,98557.69
2018-03-02T20:10:51.067Z,98557.55
2018-03-02T20:13:21.285Z,98565.12
2018-03-02T20:15:51.772Z,98568.27
2018-03-02T20:18:21.019Z,98565.03
2018-03-02T20:20:50.621Z,98567.41
2018-03-02T20:23:20.007Z,98565.14
2018-03-02T20:25:50.442Z,98563.09
2018-03-02T20:28:19.714Z,98569.56
2018-03-02T20:30:49.038Z,98562.88
2018-03-02T20:33:18.476Z,98567.55
2018-03-02T20:35:48.255Z,98566.87
2018-03-02T20:38:18.011Z,98565.61
2018-03-02T20:40:47.475Z,98563.45
2018-03-02T20:43:16.825Z,98560.78
2018-03-02T20:45:47.026Z,98565.89
2018-03-02T20:48:16.426Z,98570.02
2018-03-02T20:50:45.716Z,98568.80
2018-03-02T20:53:15.000Z,98570.63
2018-03-02T20:55:44.229Z,98571.38
2018-03-02T20:58:13.688Z,98565.41
2018-03-02T21:00:42.892Z,98566.98
2018-03-02T21:03:12.130Z,98557.96
2018-03-02T21:05:41.387Z,98559.48
2018-03-02T21:08:10.627Z,98564.51
2018-03-02T21:10:40.643Z,98574.37
2018-03-02T21:13:09.876Z,98570.08
2018-03-02T21:15:39.135Z,98570.48
2018-03-02T21:18:08.392Z,98567.53
2018-03-02T21:20:37.641Z,98563.23
2018-03-02T21:23:08.460Z,98575.27
2018-03-02T21:25:37.757Z,98572.42
2018-03-02T21:28:07.077Z,98572.56
2018-03-02T21:30:36.316Z,98572.16
2018-03-02T21:33:05.616Z,98577.59
2018-03-02T21:35:34.909Z,98574.39
2018-03-02T21:38:04.132Z,98582.92
2018-03-02T21:40:33.378Z,98567.95
2018-03-02T21:43:02.600Z,98576.83
2018-03-02T21:45:32.616Z,98574.37
2018-03-02T21:48:01.868Z,98572.67
2018-03-02T21:50:31.161Z,98577.19
2018-03-02T21:53:00.339Z,98576.07
2018-03-02T21:55:29.571Z,98573.66
2018-03-02T21:57:59.593Z,98576.08
2018-03-02T22:00:29.628Z,98574.75
2018-03-02T22:02:59.615Z,98571.89
2018-03-02T22:05:28.960Z,98573.02
2018-03-02T22:07:58.201Z,98565.53
2018-03-02T22:10:27.423Z,98567.07
2018-03-02T22:12:56.678Z,98560.70
2018-03-02T22:15:25.974Z,98569.33
2018-03-02T22:17:55.243Z,98562.58
2018-03-02T22:20:24.480Z,98565.56
2018-03-02T22:22:53.711Z,98553.84
2018-03-02T22:25:23.719Z,98553.70
2018-03-02T22:27:52.968Z,98553.30
2018-03-02T22:30:22.204Z,98552.95
2018-03-02T22:32:51.478Z,98552.20
2018-03-02T22:35:20.724Z,98551.66
2018-03-02T22:37:50.084Z,98555.91
2018-03-02T22:40:19.299Z,98562.16
2018-03-02T22:42:48.534Z,98563.03
2018-03-02T22:45:18.663Z,98556.62
2018-03-02T22:47:48.790Z,98549.69
2018-03-02T22:50:18.011Z,98551.45
2018-03-02T22:52:47.280Z,98556.52
2018-03-02T22:55:16.495Z,98560.63
2018-03-02T22:57:45.743Z,98552.49
2018-03-02T23:00:14.925Z,98561.31
2018-03-02T23:02:44.296Z,98562.43
2018-03-02T23:05:13.516Z,98561.53
2018-03-02T23:07:42.746Z,98556.32
2018-03-02T23:10:12.000Z,98556.07
2018-03-02T23:12:41.240Z,98558.48
2018-03-02T23:15:10.484Z,98556.32
2018-03-02T23:17:39.704Z,98559.52
2018-03-02T23:20:08.932Z,98550.75
2018-03-02T23:22:38.952Z,98551.79
2018-03-02T23:25:08.954Z,98551.14
2018-03-02T23:27:38.222Z,98543.66
2018-03-02T23:30:07.452Z,98546.86
2018-03-02T23:32:36.672Z,98541.94
2018-03-02T23:35:06.791Z,98546.94
2018-03-02T23:37:36.025Z,98545.56
2018-03-02T23:40:05.283Z,98548.08
2018-03-02T23:42:35.274Z,98537.29
2018-03-02T23:45:04.790Z,98530.00
2018-03-02T23:47:34.002Z,98535.47
2018-03-02T23:50:04.061Z,98534.49
2018-03-02T23:52:33.263Z,98533.95
2018-03-02T23:55:02.503Z,98524.96
2018-03-02T23:57:31.739Z,98522.45
